Accueil
METAR-TAF:

METAR-TAF

Aéroports :

Aéroport international de Münster/Osnabrück

Münster-Osnabrück, Allemagne

latitude: 52-08N, longitude: 007-42E, altitude: 48 m

Observation

Le bulletin a été fait il y a 31 minutes, à 07:20 UTC
Vent 7 kt de sud/sud-ouest, variant entre sud et ouest/sud-ouest
Température 16°C
Humidité 77%
Pression 1019 hPa
Visibilité 10 km ou plus
Nuages fragmentés à une hauteur de 2500 ft

METAR: EDDG 180720Z 20007KT 170V240 9999 BKN025 16/12 Q1019 NOSIG

Heure: 09:51 (07:51 UTC)

Prévision

Le bulletin a été fait il y a 2 heures et 51 minutes, à 05:00 UTC
Prévision valable du 18 à 06 UTC au 19 à 06 UTC
Vent 10 kt de sud/sud-ouest
Visibilité 10 km ou plus
Nuages fragmentés à une hauteur de 2500 ft
Evoluant progressivement
du 18 à 18 UTC au 18 à 20 UTC
Vent 5 kt de sud-ouest

TAF: EDDG 180500Z 1806/1906 21010KT 9999 BKN025 BECMG 1818/1820 22005KT

Observations et prévisions météorologiques de plus de 4000 aéroports (messages METAR et TAF).

Les stations disponibles sont représentées par des disques jaunes et rouges sur la carte.

Passer la souris dessus pour voir le nom de la station.

Cliquer dessus pour voir les observations et prévisions météorologiques.

Pour changer de carte: cliquez sur les boutons verts avec une croix noire pour zoomer, sur le bouton vert avec un tiret pour effectuer un zoom arrière, ou sur les flèches vertes pour les cartes adjacentes.


METAR-TAF: